createdAt,value
2022-08-03T00:01:39.057Z,98657.94
2022-08-03T00:04:07.171Z,98661.50
2022-08-03T00:06:37.116Z,98665.56
2022-08-03T00:09:05.507Z,98658.22
2022-08-03T00:11:32.308Z,98661.66
2022-08-03T00:13:58.906Z,98659.81
2022-08-03T00:16:26.440Z,98663.44
2022-08-03T00:18:53.254Z,98659.97
2022-08-03T00:21:19.937Z,98665.72
2022-08-03T00:23:52.429Z,98661.69
2022-08-03T00:26:20.923Z,98666.22
2022-08-03T00:28:48.095Z,98659.84
2022-08-03T00:31:14.722Z,98654.94
2022-08-03T00:33:58.936Z,98654.94
2022-08-03T00:36:27.657Z,98661.19
2022-08-03T00:38:54.584Z,98653.94
2022-08-03T00:41:21.481Z,98655.78
2022-08-03T00:43:48.227Z,98655.03
2022-08-03T00:46:19.231Z,98657.72
2022-08-03T00:48:51.504Z,98659.28
2022-08-03T00:51:19.239Z,98664.78
2022-08-03T00:53:46.184Z,98662.91
2022-08-03T00:56:16.986Z,98662.34
2022-08-03T00:58:47.108Z,98664.34
2022-08-03T01:01:14.424Z,98664.66
2022-08-03T01:03:41.244Z,98661.97
2022-08-03T01:06:13.409Z,98664.22
2022-08-03T01:08:56.970Z,98652.34
2022-08-03T01:11:23.636Z,98661.28
2022-08-03T01:14:17.906Z,98659.38
2022-08-03T01:16:54.681Z,98666.44
2022-08-03T01:19:24.214Z,98664.59
2022-08-03T01:21:51.011Z,98667.28
2022-08-03T01:24:35.174Z,98668.94
2022-08-03T01:27:11.939Z,98661.72
2022-08-03T01:30:01.282Z,98667.44
2022-08-03T01:32:58.629Z,98673.41
2022-08-03T01:35:38.622Z,98663.44
2022-08-03T01:38:23.893Z,98665.72
2022-08-03T01:40:56.253Z,98663.28
2022-08-03T01:44:27.043Z,98663.97
2022-08-03T01:46:16.908Z,98665.72
2022-08-03T01:48:46.384Z,98656.69
2022-08-03T01:51:15.632Z,98656.06
2022-08-03T01:53:43.357Z,98664.06
2022-08-03T01:56:11.330Z,98657.22
2022-08-03T01:58:40.781Z,98663.53
2022-08-03T02:01:09.807Z,98672.94
2022-08-03T02:03:59.744Z,98668.81
2022-08-03T02:06:59.778Z,98660.22
2022-08-03T02:09:17.919Z,98663.03
2022-08-03T02:11:46.795Z,98663.84
2022-08-03T02:14:16.216Z,98661.94
2022-08-03T02:16:45.532Z,98665.09
2022-08-03T02:19:13.178Z,98654.47
2022-08-03T02:21:57.233Z,98653.97
2022-08-03T02:24:29.064Z,98648.13
2022-08-03T02:26:57.136Z,98661.00
2022-08-03T02:29:40.286Z,98656.09
2022-08-03T02:32:11.572Z,98654.13
2022-08-03T02:34:40.102Z,98657.34
2022-08-03T02:37:10.364Z,98658.31
2022-08-03T02:39:38.851Z,98655.41
2022-08-03T02:42:08.656Z,98655.63
2022-08-03T02:44:37.676Z,98662.69
2022-08-03T02:47:08.168Z,98660.91
2022-08-03T02:49:50.571Z,98666.97
2022-08-03T02:52:21.509Z,98661.91
2022-08-03T02:54:51.276Z,98667.97
2022-08-03T02:57:20.181Z,98665.78
2022-08-03T02:59:48.006Z,98664.72
2022-08-03T03:02:17.084Z,98671.91
2022-08-03T03:05:51.764Z,98673.28
2022-08-03T03:07:33.928Z,98674.88
2022-08-03T03:10:10.712Z,98668.47
2022-08-03T03:12:39.126Z,98666.38
2022-08-03T03:15:06.712Z,98671.06
2022-08-03T03:17:34.388Z,98672.84
2022-08-03T03:20:01.690Z,98685.03
2022-08-03T03:22:29.529Z,98678.41
2022-08-03T03:24:56.525Z,98674.91
2022-08-03T03:27:25.608Z,98678.00
2022-08-03T03:29:54.360Z,98677.03
2022-08-03T03:32:21.109Z,98674.41
2022-08-03T03:34:48.207Z,98674.91
2022-08-03T03:37:14.864Z,98678.41
2022-08-03T03:39:41.526Z,98674.75
2022-08-03T03:42:08.251Z,98674.63
2022-08-03T03:44:34.979Z,98675.72
2022-08-03T03:47:01.735Z,98680.03
2022-08-03T03:49:32.292Z,98679.97
2022-08-03T03:51:59.056Z,98684.03
2022-08-03T03:54:25.673Z,98673.84
2022-08-03T03:56:56.151Z,98682.91
2022-08-03T03:59:22.832Z,98689.59
2022-08-03T04:01:59.171Z,98687.41
2022-08-03T04:04:44.882Z,98690.38
2022-08-03T04:07:30.218Z,98695.78
2022-08-03T04:10:16.524Z,98699.94
2022-08-03T04:12:49.939Z,98707.28
2022-08-03T04:15:20.872Z,98700.09
2022-08-03T04:17:50.320Z,98696.56
2022-08-03T04:20:21.431Z,98702.31
2022-08-03T04:22:51.355Z,98702.88
2022-08-03T04:25:20.930Z,98701.59
2022-08-03T04:28:07.970Z,98705.22
2022-08-03T04:30:39.233Z,98712.59
2022-08-03T04:33:08.316Z,98711.94
2022-08-03T04:36:02.362Z,98711.06
2022-08-03T04:38:25.653Z,98710.72
2022-08-03T04:40:53.841Z,98710.41
2022-08-03T04:43:22.610Z,98710.25
2022-08-03T04:45:51.280Z,98717.19
2022-08-03T04:48:20.129Z,98709.13
2022-08-03T04:50:47.961Z,98721.59
2022-08-03T04:53:14.646Z,98707.63
2022-08-03T04:55:41.280Z,98720.50
2022-08-03T04:58:07.889Z,98714.50
2022-08-03T05:00:34.635Z,98718.75
2022-08-03T05:03:01.298Z,98716.28
2022-08-03T05:05:36.224Z,98715.81
2022-08-03T05:08:14.614Z,98718.97
2022-08-03T05:10:41.346Z,98713.41
2022-08-03T05:13:12.084Z,98715.56
2022-08-03T05:15:43.241Z,98715.16
2022-08-03T05:18:13.982Z,98719.56
2022-08-03T05:20:43.342Z,98718.06
2022-08-03T05:23:09.948Z,98713.97
2022-08-03T05:25:36.599Z,98714.13
2022-08-03T05:28:03.480Z,98724.06
2022-08-03T05:30:34.037Z,98717.91
2022-08-03T05:33:02.518Z,98715.78
2022-08-03T05:35:57.567Z,98713.41
2022-08-03T05:38:23.659Z,98719.66
2022-08-03T05:40:57.191Z,98721.19
2022-08-03T05:43:41.379Z,98724.03
2022-08-03T05:46:12.887Z,98726.69
2022-08-03T05:48:40.281Z,98728.53
2022-08-03T05:51:11.437Z,98719.66
2022-08-03T05:53:39.820Z,98729.06
2022-08-03T05:56:15.080Z,98725.09
2022-08-03T05:58:46.975Z,98724.97
2022-08-03T06:01:14.561Z,98731.31
2022-08-03T06:03:41.259Z,98728.72
2022-08-03T06:06:08.137Z,98727.00
2022-08-03T06:08:35.390Z,98724.72
2022-08-03T06:11:02.132Z,98724.72
2022-08-03T06:13:28.906Z,98729.38
2022-08-03T06:15:55.519Z,98736.78
2022-08-03T06:18:22.243Z,98730.03
2022-08-03T06:20:49.447Z,98728.19
2022-08-03T06:23:17.647Z,98739.00
2022-08-03T06:25:45.312Z,98743.72
2022-08-03T06:28:42.635Z,98732.50
2022-08-03T06:31:01.332Z,98722.97
2022-08-03T06:34:30.808Z,98728.53
2022-08-03T06:36:15.220Z,98727.47
2022-08-03T06:38:41.882Z,98731.88
2022-08-03T06:41:08.533Z,98734.78
2022-08-03T06:43:38.004Z,98737.84
2022-08-03T06:46:24.427Z,98728.13
2022-08-03T06:48:51.288Z,98730.22
2022-08-03T06:51:17.879Z,98738.34
2022-08-03T06:53:44.496Z,98739.84
2022-08-03T06:56:11.217Z,98739.97
2022-08-03T06:58:37.826Z,98744.13
2022-08-03T07:01:04.526Z,98744.56
2022-08-03T07:03:31.209Z,98744.22
2022-08-03T07:05:57.868Z,98737.09
2022-08-03T07:08:33.522Z,98738.31
2022-08-03T07:11:01.562Z,98740.06
2022-08-03T07:13:28.272Z,98742.06
2022-08-03T07:15:56.380Z,98746.00
2022-08-03T07:18:28.867Z,98739.09
2022-08-03T07:20:56.911Z,98740.75
2022-08-03T07:23:23.550Z,98742.03
2022-08-03T07:25:50.943Z,98741.09
2022-08-03T07:28:18.170Z,98742.81
2022-08-03T07:30:44.850Z,98745.75
2022-08-03T07:33:11.723Z,98743.25
2022-08-03T07:35:38.620Z,98736.16
2022-08-03T07:38:05.227Z,98739.75
2022-08-03T07:40:32.628Z,98742.16
2022-08-03T07:43:00.502Z,98736.41
2022-08-03T07:45:27.157Z,98737.31
2022-08-03T07:47:54.335Z,98730.44
2022-08-03T07:50:21.635Z,98732.63
2022-08-03T07:52:48.517Z,98737.97
2022-08-03T07:55:16.269Z,98734.25
2022-08-03T07:57:43.035Z,98736.03
2022-08-03T08:00:19.729Z,98742.84
2022-08-03T08:02:46.726Z,98736.03
2022-08-03T08:05:13.325Z,98728.91
2022-08-03T08:07:40.392Z,98731.28
2022-08-03T08:10:10.089Z,98731.59
2022-08-03T08:12:38.216Z,98738.47
2022-08-03T08:15:05.937Z,98731.19
2022-08-03T08:17:42.058Z,98727.75
2022-08-03T08:20:09.787Z,98728.72
2022-08-03T08:22:36.416Z,98719.94
2022-08-03T08:25:04.488Z,98720.63
2022-08-03T08:28:22.475Z,98728.28
2022-08-03T08:30:20.299Z,98725.84
2022-08-03T08:32:47.709Z,98727.84
2022-08-03T08:35:14.839Z,98723.47
2022-08-03T08:37:41.753Z,98722.28
2022-08-03T08:40:09.427Z,98724.69
2022-08-03T08:42:40.302Z,98723.03
2022-08-03T08:45:12.073Z,98719.41
2022-08-03T08:47:51.075Z,98718.53
2022-08-03T08:50:22.126Z,98718.53
2022-08-03T08:52:55.259Z,98719.91
2022-08-03T08:55:23.700Z,98715.41
2022-08-03T08:57:55.541Z,98717.66
2022-08-03T09:00:22.223Z,98709.22
2022-08-03T09:02:49.167Z,98717.13
2022-08-03T09:05:18.748Z,98714.00
2022-08-03T09:07:48.373Z,98707.84
2022-08-03T09:10:19.859Z,98715.09
2022-08-03T09:12:53.563Z,98706.72
2022-08-03T09:15:29.343Z,98710.00
2022-08-03T09:17:58.077Z,98700.56
2022-08-03T09:20:26.589Z,98701.25
2022-08-03T09:22:57.533Z,98699.69
2022-08-03T09:25:43.117Z,98696.00
2022-08-03T09:28:52.677Z,98701.94
2022-08-03T09:31:03.642Z,98700.03
2022-08-03T09:33:35.918Z,98710.16
2022-08-03T09:36:02.985Z,98705.09
2022-08-03T09:38:29.586Z,98701.69
2022-08-03T09:41:00.340Z,98695.97
2022-08-03T09:43:28.098Z,98703.84
2022-08-03T09:46:07.514Z,98701.78
2022-08-03T09:48:37.451Z,98689.09
2022-08-03T09:51:12.957Z,98687.88
2022-08-03T09:53:58.854Z,98688.84
2022-08-03T09:56:44.025Z,98683.13
2022-08-03T09:59:12.679Z,98677.75
2022-08-03T10:01:41.844Z,98686.94
2022-08-03T10:04:14.607Z,98682.56
2022-08-03T10:06:41.294Z,98682.66
2022-08-03T10:09:13.240Z,98678.75
2022-08-03T10:11:42.228Z,98665.78
2022-08-03T10:14:32.544Z,98663.06
2022-08-03T10:16:59.173Z,98670.81
2022-08-03T10:19:25.895Z,98661.81
2022-08-03T10:21:57.889Z,98656.03
2022-08-03T10:24:27.381Z,98667.41
2022-08-03T10:27:01.661Z,98654.91
2022-08-03T10:29:29.651Z,98665.69
2022-08-03T10:31:59.578Z,98653.06
2022-08-03T10:34:29.180Z,98647.66
2022-08-03T10:37:00.158Z,98648.88
2022-08-03T10:39:30.663Z,98647.81
2022-08-03T10:42:02.678Z,98641.22
2022-08-03T10:44:41.409Z,98648.41
2022-08-03T10:47:10.318Z,98639.63
2022-08-03T10:49:37.703Z,98639.34
2022-08-03T10:52:12.772Z,98644.38
2022-08-03T10:55:03.270Z,98638.84
2022-08-03T10:57:47.435Z,98638.00
2022-08-03T11:00:25.056Z,98633.16
2022-08-03T11:03:06.987Z,98634.63
2022-08-03T11:05:36.737Z,98627.78
2022-08-03T11:08:28.084Z,98629.69
2022-08-03T11:11:23.615Z,98622.19
2022-08-03T11:14:11.269Z,98631.44
2022-08-03T11:16:41.132Z,98616.91
2022-08-03T11:19:10.792Z,98615.97
2022-08-03T11:21:50.630Z,98617.22
2022-08-03T11:24:43.766Z,98605.88
2022-08-03T11:27:18.804Z,98611.41
2022-08-03T11:30:04.385Z,98596.59
2022-08-03T11:32:40.470Z,98608.75
2022-08-03T11:35:14.661Z,98603.41
2022-08-03T11:38:03.345Z,98600.63
2022-08-03T11:40:44.734Z,98606.00
2022-08-03T11:43:32.015Z,98610.63
2022-08-03T11:46:28.092Z,98605.53
2022-08-03T11:49:10.005Z,98601.13
2022-08-03T11:51:38.841Z,98601.47
2022-08-03T11:54:06.931Z,98595.84
2022-08-03T11:56:48.118Z,98589.47
2022-08-03T11:59:20.140Z,98590.66
2022-08-03T12:01:48.153Z,98583.16
2022-08-03T12:04:16.367Z,98586.78
2022-08-03T12:06:59.259Z,98581.16
2022-08-03T12:09:25.879Z,98576.81
2022-08-03T12:12:00.137Z,98580.13
2022-08-03T12:14:48.823Z,98572.31
2022-08-03T12:17:15.213Z,98571.50
2022-08-03T12:19:45.462Z,98578.16
2022-08-03T12:22:12.117Z,98569.34
2022-08-03T12:24:43.388Z,98573.00
2022-08-03T12:27:10.161Z,98566.16
2022-08-03T12:29:36.976Z,98565.47
2022-08-03T12:32:03.882Z,98567.50
2022-08-03T12:34:47.626Z,98566.31
2022-08-03T12:37:29.002Z,98566.19
2022-08-03T12:40:09.638Z,98565.53
2022-08-03T12:42:39.423Z,98561.84
2022-08-03T12:45:25.881Z,98555.66
2022-08-03T12:47:57.629Z,98564.81
2022-08-03T12:50:26.898Z,98559.16
2022-08-03T12:52:53.853Z,98565.34
2022-08-03T12:55:22.309Z,98559.84
2022-08-03T12:57:49.396Z,98552.88
2022-08-03T13:00:28.996Z,98550.50
2022-08-03T13:03:39.664Z,98557.09
2022-08-03T13:05:55.866Z,98553.13
2022-08-03T13:08:25.213Z,98553.16
2022-08-03T13:10:52.575Z,98556.50
2022-08-03T13:13:20.866Z,98554.47
2022-08-03T13:15:47.751Z,98552.47
2022-08-03T13:18:17.249Z,98549.19
2022-08-03T13:20:44.366Z,98548.16
2022-08-03T13:23:15.547Z,98551.44
2022-08-03T13:25:55.540Z,98545.13
2022-08-03T13:28:23.173Z,98538.00
2022-08-03T13:30:49.827Z,98534.59
2022-08-03T13:33:16.556Z,98536.81
2022-08-03T13:35:43.148Z,98531.53
2022-08-03T13:38:09.770Z,98531.28
2022-08-03T13:40:42.197Z,98514.97
2022-08-03T13:43:09.555Z,98517.19
2022-08-03T13:45:36.215Z,98517.97
2022-08-03T13:48:02.831Z,98520.44
2022-08-03T13:50:30.249Z,98523.06
2022-08-03T13:52:57.978Z,98520.69
2022-08-03T13:55:24.729Z,98510.00
2022-08-03T13:58:02.920Z,98516.28
2022-08-03T14:00:34.012Z,98512.13
2022-08-03T14:03:16.599Z,98516.41
2022-08-03T14:05:43.879Z,98512.41
2022-08-03T14:08:11.507Z,98504.41
2022-08-03T14:10:44.026Z,98504.22
2022-08-03T14:13:17.849Z,98499.91
2022-08-03T14:15:50.320Z,98498.41
2022-08-03T14:18:28.983Z,98500.03
2022-08-03T14:21:06.714Z,98501.63
2022-08-03T14:23:34.819Z,98497.63
2022-08-03T14:26:01.559Z,98500.13
2022-08-03T14:28:28.724Z,98488.28
2022-08-03T14:30:56.298Z,98490.72
2022-08-03T14:33:23.830Z,98493.59
2022-08-03T14:35:51.627Z,98493.56
2022-08-03T14:38:18.671Z,98491.22
2022-08-03T14:40:45.465Z,98491.34
2022-08-03T14:43:12.618Z,98486.81
2022-08-03T14:45:42.742Z,98487.59
2022-08-03T14:50:33.982Z,98489.25
2022-08-03T14:50:56.890Z,98485.78
2022-08-03T14:53:24.190Z,98475.75
2022-08-03T14:55:51.937Z,98473.91
2022-08-03T14:58:20.983Z,98480.47
2022-08-03T15:00:49.016Z,98472.66
2022-08-03T15:03:17.121Z,98479.94
2022-08-03T15:05:44.514Z,98482.59
2022-08-03T15:08:11.506Z,98468.13
2022-08-03T15:10:44.341Z,98475.94
2022-08-03T15:13:18.474Z,98464.50
2022-08-03T15:15:45.301Z,98466.81
2022-08-03T15:18:11.947Z,98468.31
2022-08-03T15:20:44.827Z,98472.97
2022-08-03T15:23:14.106Z,98470.13
2022-08-03T15:26:32.049Z,98473.84
2022-08-03T15:28:27.676Z,98468.69
2022-08-03T15:30:54.689Z,98461.84
2022-08-03T15:33:21.868Z,98455.06
2022-08-03T15:35:49.793Z,98463.38
2022-08-03T15:38:16.552Z,98466.50
2022-08-03T15:40:43.373Z,98457.38
2022-08-03T15:43:09.957Z,98458.53
2022-08-03T15:45:37.397Z,98458.56
2022-08-03T15:48:06.105Z,98457.22
2022-08-03T15:50:33.132Z,98455.41
2022-08-03T15:52:59.863Z,98455.88
2022-08-03T15:55:26.726Z,98456.03
2022-08-03T15:59:09.787Z,98461.03
2022-08-03T16:00:42.411Z,98460.69
2022-08-03T16:03:09.803Z,98454.41
2022-08-03T16:05:36.846Z,98452.06
2022-08-03T16:08:06.207Z,98460.72
2022-08-03T16:10:34.580Z,98457.06
2022-08-03T16:13:01.251Z,98457.06
2022-08-03T16:15:28.075Z,98450.06
2022-08-03T16:17:54.885Z,98447.41
2022-08-03T16:20:31.403Z,98455.72
2022-08-03T16:23:08.446Z,98452.72
2022-08-03T16:25:38.639Z,98450.06
2022-08-03T16:28:08.122Z,98450.72
2022-08-03T16:30:41.043Z,98450.22
2022-08-03T16:33:07.747Z,98443.91
2022-08-03T16:35:34.535Z,98446.56
2022-08-03T16:38:01.185Z,98446.72
2022-08-03T16:40:28.126Z,98445.41
2022-08-03T16:42:55.012Z,98447.91
2022-08-03T16:45:21.895Z,98448.44
2022-08-03T16:47:49.074Z,98454.06
2022-08-03T16:50:31.871Z,98446.38
2022-08-03T16:52:59.553Z,98449.38
2022-08-03T16:55:49.086Z,98450.22
2022-08-03T16:58:15.166Z,98451.38
2022-08-03T17:00:43.064Z,98463.03
2022-08-03T17:03:12.402Z,98460.34
2022-08-03T17:05:47.749Z,98455.03
2022-08-03T17:08:15.702Z,98461.34
2022-08-03T17:10:44.522Z,98462.84
2022-08-03T17:13:20.782Z,98464.84
2022-08-03T17:16:00.859Z,98462.00
2022-08-03T17:18:34.898Z,98460.66
2022-08-03T17:21:06.063Z,98459.19
2022-08-03T17:23:40.537Z,98458.00
2022-08-03T17:26:21.270Z,98463.97
2022-08-03T17:28:58.009Z,98455.97
2022-08-03T17:31:31.259Z,98467.09
2022-08-03T17:34:01.739Z,98469.56
2022-08-03T17:37:00.911Z,98470.50
2022-08-03T17:39:23.538Z,98476.16
2022-08-03T17:42:00.855Z,98480.44
2022-08-03T17:44:35.271Z,98477.41
2022-08-03T17:47:08.191Z,98471.06
2022-08-03T17:49:40.001Z,98472.38
2022-08-03T17:52:30.890Z,98472.16
2022-08-03T17:55:57.093Z,98468.09
2022-08-03T17:58:11.228Z,98476.81
2022-08-03T18:01:01.132Z,98480.06
2022-08-03T18:03:30.762Z,98479.47
2022-08-03T18:06:27.918Z,98483.66
2022-08-03T18:09:04.694Z,98482.34
2022-08-03T18:11:35.400Z,98485.41
2022-08-03T18:14:24.317Z,98486.44
2022-08-03T18:17:01.627Z,98488.66
2022-08-03T18:20:02.611Z,98490.97
2022-08-03T18:22:20.360Z,98490.47
2022-08-03T18:24:50.026Z,98493.19
2022-08-03T18:27:19.426Z,98491.41
2022-08-03T18:29:47.100Z,98499.25
2022-08-03T18:32:16.909Z,98494.97
2022-08-03T18:34:53.968Z,98501.28
2022-08-03T18:37:25.185Z,98502.28
2022-08-03T18:39:55.083Z,98508.28
2022-08-03T18:42:25.806Z,98513.16
2022-08-03T18:44:56.531Z,98506.22
2022-08-03T18:47:50.407Z,98509.59
2022-08-03T18:50:46.509Z,98509.31
2022-08-03T18:53:20.273Z,98516.28
2022-08-03T18:56:01.404Z,98514.19
2022-08-03T18:58:40.762Z,98514.03
2022-08-03T19:01:57.996Z,98515.47
2022-08-03T19:04:09.553Z,98517.78
2022-08-03T19:06:41.996Z,98516.53
2022-08-03T19:09:22.132Z,98515.41
2022-08-03T19:12:13.955Z,98523.19
2022-08-03T19:14:47.399Z,98525.66
2022-08-03T19:17:21.127Z,98519.69
2022-08-03T19:19:51.926Z,98527.03
2022-08-03T19:22:21.282Z,98529.25
2022-08-03T19:24:51.706Z,98526.59
2022-08-03T19:27:26.809Z,98533.38
2022-08-03T19:30:00.612Z,98540.25
2022-08-03T19:32:30.113Z,98533.69
2022-08-03T19:34:59.606Z,98533.00
2022-08-03T19:37:38.355Z,98533.50
2022-08-03T19:40:10.841Z,98525.81
2022-08-03T19:42:44.639Z,98530.75
2022-08-03T19:45:14.750Z,98524.44
2022-08-03T19:48:12.301Z,98531.28
2022-08-03T19:50:43.140Z,98534.44
2022-08-03T19:53:12.697Z,98537.88
2022-08-03T19:55:47.562Z,98535.91
2022-08-03T19:58:17.767Z,98536.31
2022-08-03T20:00:55.651Z,98540.75
2022-08-03T20:03:23.426Z,98537.50
2022-08-03T20:05:52.387Z,98537.38
2022-08-03T20:08:21.952Z,98538.22
2022-08-03T20:10:49.486Z,98530.31
2022-08-03T20:13:19.462Z,98536.53
2022-08-03T20:15:46.298Z,98534.41
2022-08-03T20:18:16.751Z,98532.03
2022-08-03T20:20:48.043Z,98531.78
2022-08-03T20:23:18.308Z,98531.66
2022-08-03T20:25:57.448Z,98531.31
2022-08-03T20:28:31.375Z,98530.22
2022-08-03T20:33:48.770Z,98530.50
2022-08-03T20:36:17.830Z,98537.78
2022-08-03T20:38:46.996Z,98537.31
2022-08-03T20:41:15.524Z,98544.38
2022-08-03T20:43:42.281Z,98537.78
2022-08-03T20:46:31.756Z,98537.03
2022-08-03T20:48:58.726Z,98533.91
2022-08-03T20:51:52.715Z,98537.19
2022-08-03T20:54:22.983Z,98527.28
2022-08-03T20:56:57.997Z,98531.13
2022-08-03T20:59:34.809Z,98532.19
2022-08-03T21:02:13.740Z,98537.69
2022-08-03T21:04:47.466Z,98529.66
2022-08-03T21:07:19.320Z,98532.28
2022-08-03T21:09:56.039Z,98527.03
2022-08-03T21:12:35.913Z,98533.69
2022-08-03T21:13:12.436Z,98529.41
2022-08-03T21:15:06.465Z,98521.88
2022-08-03T21:17:40.881Z,98532.38
2022-08-03T21:20:10.245Z,98539.34
2022-08-03T21:22:45.234Z,98544.13
2022-08-03T21:25:15.502Z,98536.81
2022-08-03T21:27:42.263Z,98541.25
2022-08-03T21:30:11.070Z,98546.19
2022-08-03T21:32:40.334Z,98544.50
2022-08-03T21:35:10.720Z,98545.88
2022-08-03T21:37:39.202Z,98540.56
2022-08-03T21:40:06.935Z,98555.03
2022-08-03T21:42:33.767Z,98552.22
2022-08-03T21:45:00.448Z,98553.88
2022-08-03T21:47:27.219Z,98553.56
2022-08-03T21:50:07.082Z,98559.72
2022-08-03T21:52:41.286Z,98558.72
2022-08-03T21:55:08.830Z,98554.06
2022-08-03T21:57:51.647Z,98559.19
2022-08-03T22:00:20.585Z,98558.66
2022-08-03T22:02:58.366Z,98559.78
2022-08-03T22:05:28.983Z,98562.19
2022-08-03T22:08:10.861Z,98560.09
2022-08-03T22:10:37.982Z,98557.09
2022-08-03T22:13:04.653Z,98556.72
2022-08-03T22:15:32.439Z,98565.09
2022-08-03T22:18:03.390Z,98568.09
2022-08-03T22:20:30.303Z,98579.94
2022-08-03T22:23:00.424Z,98575.50
2022-08-03T22:25:30.693Z,98576.66
2022-08-03T22:28:00.551Z,98571.31
2022-08-03T22:30:27.486Z,98581.03
2022-08-03T22:32:56.373Z,98577.19
2022-08-03T22:35:25.237Z,98572.72
2022-08-03T22:37:55.593Z,98574.03
2022-08-03T22:40:22.458Z,98579.28
2022-08-03T22:42:50.509Z,98576.00
2022-08-03T22:45:45.250Z,98573.47
2022-08-03T22:48:07.862Z,98573.69
2022-08-03T22:50:35.496Z,98575.75
2022-08-03T22:53:02.897Z,98570.72
2022-08-03T22:55:29.697Z,98581.25
2022-08-03T22:57:56.612Z,98571.81
2022-08-03T23:00:24.595Z,98576.13
2022-08-03T23:02:53.996Z,98581.00
2022-08-03T23:06:01.087Z,98579.78
2022-08-03T23:08:17.776Z,98580.22
2022-08-03T23:10:47.505Z,98571.06
2022-08-03T23:13:18.252Z,98572.22
2022-08-03T23:15:56.727Z,98571.56
2022-08-03T23:18:25.395Z,98573.38
2022-08-03T23:20:53.531Z,98575.88
2022-08-03T23:23:20.805Z,98576.72
2022-08-03T23:25:51.056Z,98575.66
2022-08-03T23:28:18.597Z,98578.16
2022-08-03T23:30:45.781Z,98578.25
2022-08-03T23:33:16.467Z,98576.19
2022-08-03T23:36:29.740Z,98573.00
2022-08-03T23:38:47.533Z,98571.88
2022-08-03T23:41:17.592Z,98573.28
2022-08-03T23:43:52.163Z,98572.44
2022-08-03T23:46:25.907Z,98579.22
2022-08-03T23:48:53.990Z,98569.75
2022-08-03T23:51:34.293Z,98567.72
2022-08-03T23:54:11.213Z,98566.50
2022-08-03T23:56:44.393Z,98571.72
2022-08-03T23:59:29.864Z,98566.34
